BM1424 / G-EMBJ 7700 Squawk Report (19th of October, 2017)

Aircraft E145 Reg No. G-EMBJ Age N/A
Model ERJ-145 Jet engines 2 First flight 05-99
Registered 23-07-09 Rollout 05-99 Delivered 24-05-99
Construction No. 145134 Line No. N/A Series EP
ADSHEX 400796 Airline name bmi regional Owner N/A
Airfield based East Midlands~Leics~G First tracked 2011-04-01 15:13:03

Flight history for G-EMBJ

Route Flight No Date Playback
???? N/A 2017-11-23 22:01:00
???? BM1744 2017-11-23 20:00:00
???? N/A 2017-11-23 18:18:00
???? N/A 2017-11-23 16:48:00
???? N/A 2017-11-23 14:56:00
Franz Josef Strauss (MUC) - Turany (BRQ) BM1733 2017-11-23 11:39:00
Southampton (SOU) - Franz Josef Strauss (MUC) BM1762 2017-11-23 10:16:00
Franz Josef Strauss (MUC) - Southampton (SOU) BM1761 2017-11-23 08:07:00
???? BM1744 2017-11-22 19:45:00
???? N/A 2017-11-22 17:52:00
???? N/A 2017-11-22 16:01:00
???? N/A 2017-11-22 14:14:00
???? N/A 2017-11-22 09:30:00
???? N/A 2017-11-22 07:59:00
Franz Josef Strauss (MUC) - Bergamo Orio Al Serio (BGY) BM1741 2017-11-22 06:20:00
Saarbrucken (SCN) - Franz Josef Strauss (MUC) BM1728 2017-11-21 22:55:00
???? N/A 2017-11-21 21:40:00
???? BM1744 2017-11-21 20:03:00
???? N/A 2017-11-21 18:08:00
???? N/A 2017-11-21 16:01:00
Time Lat Lon Altitude Heading Speed Vertical Rate
2017-10-19 14:17:27 GMT 52.29604 -1.49203 4,675 297 185 0
2017-10-19 14:16:39 GMT 52.26956 -1.41807 5,375 297 185 0
2017-10-19 14:16:29 GMT 52.26483 -1.40469 5,375 301 287 0
2017-10-19 14:16:19 GMT 52.25913 -1.38854 5,375 302 204 0
2017-10-19 14:15:58 GMT 52.24837 -1.35793 5,375 298 219 -180
2017-10-19 14:15:35 GMT 52.23712 -1.32375 5,375 298 212 -300
2017-10-19 14:15:28 GMT 52.23388 -1.31385 5,375 297 212 -360
2017-10-19 14:15:09 GMT 52.22496 -1.28590 5,400 297 187 -480
2017-10-19 14:14:57 GMT 52.21970 -1.26972 5,575 294 233 -1440
2017-10-19 14:14:49 GMT 52.21572 -1.25681 5,575 299 208 -1380
2017-10-19 14:14:35 GMT 52.20901 -1.23762 5,800 288 205 -1560
2017-10-19 14:14:29 GMT 52.20651 -1.22808 6,250 302 229 0
2017-10-19 14:14:18 GMT 52.20056 -1.21083 6,250 298 239 -300
2017-10-19 14:14:10 GMT 52.19648 -1.19876 6,250 296 222 -300
2017-10-19 14:13:59 GMT 52.19098 -1.18379 6,375 298 279 -360
2017-10-19 14:13:49 GMT 52.18556 -1.16757 6,375 298 207 -1680
2017-10-19 14:13:29 GMT 52.17488 -1.13851 6,525 300 220 -1920
2017-10-19 14:13:18 GMT 52.16877 -1.12215 7,075 301 219 0
2017-10-19 14:13:09 GMT 52.16383 -1.10837 7,075 315 161 0
2017-10-19 14:12:59 GMT 52.15799 -1.09308 7,075 274 355 -600
2017-10-19 14:12:50 GMT 52.15275 -1.07936 7,050 313 237 -2340
2017-10-19 14:12:39 GMT 52.14711 -1.06235 7,225 276 386 -1980
2017-10-19 14:12:31 GMT 52.14253 -1.04885 7,725 301 241 -660
2017-10-19 14:12:19 GMT 52.13530 -1.03047 7,725 303 247 -780
2017-10-19 14:12:10 GMT 52.12962 -1.01644 7,900 294 247 -60
2017-10-19 14:11:58 GMT 52.12384 -0.99643 7,925 297 241 -180
2017-10-19 14:11:50 GMT 52.11973 -0.98348 7,975 302 240 -60
2017-10-19 14:11:41 GMT 52.11435 -0.96959 7,975 300 247 -60
2017-10-19 14:11:30 GMT 52.10767 -0.95302 8,000 294 243 -480
2017-10-19 14:11:20 GMT 52.10259 -0.93675 8,100 294 240 -480
2017-10-19 14:11:08 GMT 52.09587 -0.91710 8,225 298 232 -1020
2017-10-19 14:11:01 GMT 52.09211 -0.90632 8,450 305 208 -840
2017-10-19 14:10:49 GMT 52.08565 -0.88885 8,450 300 235 -960
2017-10-19 14:10:41 GMT 52.08120 -0.87665 8,625 299 232 -840
2017-10-19 14:10:30 GMT 52.07554 -0.85974 8,825 301 211 -2580
2017-10-19 14:10:22 GMT 52.07174 -0.84837 9,000 303 226 -1980
2017-10-19 14:10:10 GMT 52.06452 -0.82994 9,475 299 213 0
2017-10-19 14:10:00 GMT 52.05960 -0.81599 9,475 303 222 0
2017-10-19 14:09:52 GMT 52.05502 -0.80489 9,475 295 169 -960
2017-10-19 14:09:36 GMT 52.03885 -0.79447 9,675 266 357 -1080
2017-10-19 14:09:32 GMT 52.03800 -0.78220 9,825 268 327 -660
2017-10-19 14:09:22 GMT 52.03832 -0.76007 9,975 293 212 -60
2017-10-19 14:09:07 GMT 52.02716 -0.74086 9,975 285 287 0
2017-10-19 14:09:01 GMT 52.02751 -0.72812 10,000 297 306 0
2017-10-19 14:08:50 GMT 52.02034 -0.70682 10,000 297 264 0
2017-10-19 14:08:40 GMT 52.01450 -0.69132 10,000 300 254 0
2017-10-19 14:08:30 GMT 52.00823 -0.67472 10,000 299 278 120
2017-10-19 14:08:20 GMT 52.00173 -0.65643 10,000 299 228 -60
2017-10-19 14:08:10 GMT 51.99592 -0.64421 9,975 295 319 -60
2017-10-19 14:08:01 GMT 51.99027 -0.62429 10,000 303 259 0
2017-10-19 14:07:51 GMT 51.98173 -0.60669 10,000 291 249 0
2017-10-19 14:07:41 GMT 51.97731 -0.58864 10,000 304 273 0
2017-10-19 14:07:31 GMT 51.97085 -0.57297 10,000 299 288 0
2017-10-19 14:07:22 GMT 51.96497 -0.55594 10,000 308 294 0
2017-10-19 14:07:11 GMT 51.95807 -0.53732 10,000 301 247 0
2017-10-19 14:07:01 GMT 51.95162 -0.52086 10,000 301 262 0
2017-10-19 14:06:51 GMT 51.94525 -0.50411 10,000 302 261 0
2017-10-19 14:06:40 GMT 51.93829 -0.48554 10,000 301 262 0
2017-10-19 14:06:30 GMT 51.93193 -0.46860 10,000 294 231 0
2017-10-19 14:06:22 GMT 51.92844 -0.45591 10,000 308 294 0
2017-10-19 14:06:10 GMT 51.91904 -0.43509 10,000 302 242 0
2017-10-19 14:06:01 GMT 51.91320 -0.42004 10,000 303 251 -60
2017-10-19 14:05:52 GMT 51.90734 -0.40595 10,000 302 271 -60
2017-10-19 14:05:39 GMT 51.89907 -0.38345 10,025 303 251 -780
2017-10-19 14:05:31 GMT 51.89394 -0.37087 10,100 302 263 -1680
2017-10-19 14:05:19 GMT 51.88618 -0.35083 10,225 302 271 -1500
2017-10-19 14:05:10 GMT 51.88014 -0.33535 10,550 300 281 -960
2017-10-19 14:05:01 GMT 51.87412 -0.31904 10,550 299 286 -2760
2017-10-19 14:04:52 GMT 51.86826 -0.30223 10,775 298 292 -1920
2017-10-19 14:04:41 GMT 51.86122 -0.28123 11,200 297 304 -3360
2017-10-19 14:04:31 GMT 51.85478 -0.26138 11,625 296 305 -2160
2017-10-19 14:04:22 GMT 51.84911 -0.24297 12,100 298 296 -4500
2017-10-19 14:04:10 GMT 51.84153 -0.21949 13,000 297 287 -1800
2017-10-19 14:04:01 GMT 51.83728 -0.20218 13,000 302 337 -2220
2017-10-19 14:03:51 GMT 51.82956 -0.18257 13,450 298 323 -3360
2017-10-19 14:03:39 GMT 51.82099 -0.15762 14,125 300 280 -2100
2017-10-19 14:03:31 GMT 51.81573 -0.14314 14,550 298 290 -6420
2017-10-19 14:03:21 GMT 51.80937 -0.12399 16,050 299 304 840
2017-10-19 14:03:11 GMT 51.80218 -0.10331 15,875 300 288 -1380
2017-10-19 14:03:00 GMT 51.79463 -0.08296 15,875 297 296 -3180
2017-10-19 14:02:52 GMT 51.78950 -0.06726 16,225 300 292 -2580
2017-10-19 14:02:40 GMT 51.78137 -0.04456 16,625 301 305 -1800
2017-10-19 14:02:31 GMT 51.77476 -0.02697 16,925 299 297 -540
2017-10-19 14:02:22 GMT 51.76857 -0.00961 17,050 301 300 60
2017-10-19 14:02:11 GMT 51.76033 0.01241 17,025 304 320 -360
2017-10-19 14:02:01 GMT 51.75211 0.03245 17,025 301 347 -360
2017-10-19 14:01:51 GMT 51.74394 0.05453 17,100 305 370 -2280
2017-10-19 14:01:40 GMT 51.73368 0.08072 17,600 305 346 -15120
2017-10-19 14:01:30 GMT 51.72387 0.10370 20,625 302 380 -420
2017-10-19 14:01:22 GMT 51.71541 0.11938 19,225 299 394 -6900
2017-10-19 14:01:11 GMT 51.70584 0.14874 20,725 305 360 -1380
2017-10-19 14:01:01 GMT 51.69614 0.17065 20,725 298 384 -4140
2017-10-19 14:00:51 GMT 51.68766 0.19589 21,050 300 372 -3000
2017-10-19 14:00:40 GMT 51.67834 0.22431 21,700 301 367 -4680
2017-10-19 14:00:31 GMT 51.67029 0.24532 22,725 289 436 -4980
2017-10-19 14:00:21 GMT 51.66368 0.27314 22,725 290 418 -8220
2017-10-19 14:00:11 GMT 51.65674 0.30231 23,725 290 388 -4260
2017-10-19 14:00:02 GMT 51.65107 0.32675 24,650 292 353 -3300
2017-10-19 13:59:52 GMT 51.64500 0.35141 25,375 287 409 -8400
2017-10-19 13:59:40 GMT 51.63790 0.38977 26,075 291 345 -6000
2017-10-19 13:59:30 GMT 51.63213 0.41382 27,475 288 372 -1800
2017-10-19 13:59:22 GMT 51.62767 0.43485 27,475 288 419 -6720
2017-10-19 13:59:10 GMT 51.62063 0.46960 27,875 292 374 -5820
2017-10-19 13:59:02 GMT 51.61534 0.49026 29,050 286 387 -1500
2017-10-19 13:58:52 GMT 51.60974 0.51685 29,350 289 367 -2580
2017-10-19 13:58:40 GMT 51.60334 0.54953 30,000 285 404 0
2017-10-19 13:58:30 GMT 51.59827 0.57850 30,000 285 395 0
2017-10-19 13:58:21 GMT 51.59391 0.60407 30,000 283 391 0
2017-10-19 13:58:10 GMT 51.58952 0.64050 30,000 284 409 0
2017-10-19 13:58:01 GMT 51.58538 0.66347 30,000 279 485 0
2017-10-19 13:57:52 GMT 51.58202 0.69555 30,000 279 440 0
2017-10-19 13:57:41 GMT 51.57849 0.72932 30,000 276 477 0
2017-10-19 13:57:31 GMT 51.57584 0.76459 30,000 282 335 60
2017-10-19 13:57:19 GMT 51.57177 0.79915 29,975 280 432 -60
2017-10-19 13:57:10 GMT 51.56849 0.82761 30,000 279 406 0
2017-10-19 13:57:00 GMT 51.56579 0.85840 30,000 282 446 0
2017-10-19 13:56:49 GMT 51.56273 0.89907 30,000 290 345 0
2017-10-19 13:56:41 GMT 51.55823 0.91835 30,000 277 396 0
2017-10-19 13:56:31 GMT 51.55581 0.94760 30,000 281 479 0
2017-10-19 13:56:21 GMT 51.55145 0.98255 30,000 279 405 0
2017-10-19 13:56:11 GMT 51.54813 1.01344 30,000 279 424 0
2017-10-19 13:56:01 GMT 51.54497 1.04462 30,000 278 411 0
2017-10-19 13:55:51 GMT 51.54212 1.07405 30,000 281 463 0
2017-10-19 13:55:39 GMT 51.53793 1.11754 30,000 282 383 -240
2017-10-19 13:55:31 GMT 51.53482 1.13982 30,050 279 372 -720
2017-10-19 13:55:21 GMT 51.53210 1.16826 30,050 281 380 -720
2017-10-19 13:55:11 GMT 51.52807 1.19842 30,200 281 450 -780
2017-10-19 13:55:01 GMT 51.52406 1.23132 30,400 276 323 -720
2017-10-19 13:54:50 GMT 51.52122 1.26237 30,575 278 413 -1500
2017-10-19 13:54:41 GMT 51.51818 1.29042 30,950 279 400 -2640
2017-10-19 13:54:30 GMT 51.51473 1.32242 30,950 277 389 -2640
2017-10-19 13:54:21 GMT 51.51258 1.34828 31,525 283 425 -2700
2017-10-19 13:54:11 GMT 51.50863 1.37839 32,075 279 426 -3960
2017-10-19 13:54:01 GMT 51.50545 1.40619 32,875 279 485 -2460
2017-10-19 13:53:51 GMT 51.50283 1.43748 32,875 280 409 -2460
2017-10-19 13:53:41 GMT 51.49942 1.46717 33,375 279 389 -2880
2017-10-19 13:53:29 GMT 51.49532 1.50252 34,050 279 408 -4560
2017-10-19 13:53:20 GMT 51.49238 1.52943 35,650 279 383 2760
2017-10-19 13:53:11 GMT 51.48987 1.55474 35,050 281 412 -2880
2017-10-19 13:52:59 GMT 51.48500 1.59094 35,725 277 300 -720
2017-10-19 13:52:52 GMT 51.48420 1.60900 35,725 280 422 -1020
2017-10-19 13:52:41 GMT 51.48012 1.64289 35,925 280 421 -300
2017-10-19 13:52:30 GMT 51.47688 1.67567 36,000 280 442 0
2017-10-19 13:52:20 GMT 51.47320 1.70802 36,000 279 375 0
2017-10-19 13:52:11 GMT 51.47061 1.73277 36,000 278 440 0
2017-10-19 13:52:01 GMT 51.46766 1.76514 36,000 279 335 0
2017-10-19 13:51:50 GMT 51.46492 1.79218 36,000 278 454 0
2017-10-19 13:51:40 GMT 51.46175 1.82554 36,000 280 419 0
2017-10-19 13:51:30 GMT 51.45923 1.85415 36,000 281 459 0
2017-10-19 13:51:22 GMT 51.45591 1.88179 36,000 279 402 0
2017-10-19 13:51:07 GMT 51.45180 1.93053 36,000 279 318 0
2017-10-19 13:51:00 GMT 51.45007 1.94999 36,000 277 368 0
2017-10-19 13:50:50 GMT 51.44760 1.97801 36,000 278 434 0
2017-10-19 13:50:18 GMT 51.43811 2.09633 36,000 283 231 0
2017-10-19 13:50:07 GMT 51.43539 2.11472 36,000 283 296 0
2017-10-19 13:49:59 GMT 51.43288 2.13200 36,000 278 382 0
2017-10-19 13:49:50 GMT 51.43062 2.15729 36,000 279 389 0
2017-10-19 13:49:41 GMT 51.42787 2.18294 36,000 280 377 0
2017-10-19 13:49:30 GMT 51.42383 2.21563 36,000 279 359 0
2017-10-19 13:49:21 GMT 51.42128 2.23926 36,000 278 376 0
2017-10-19 13:49:08 GMT 51.41671 2.27611 36,000 280 374 0
2017-10-19 13:49:00 GMT 51.41474 2.29822 36,000 280 389 0
2017-10-19 13:48:51 GMT 51.41174 2.32375 36,000 281 394 0
2017-10-19 13:48:41 GMT 51.40803 2.35243 36,000 282 350 0
2017-10-19 13:48:29 GMT 51.40438 2.38378 36,000 281 412 0
2017-10-19 13:48:19 GMT 51.40063 2.41461 36,000 280 391 0
2017-10-19 13:48:11 GMT 51.39800 2.43743 36,000 283 450 0
2017-10-19 13:47:59 GMT 51.39201 2.47639 36,000 275 323 0
2017-10-19 13:47:50 GMT 51.39078 2.49786 36,000 281 361 0
2017-10-19 13:47:39 GMT 51.38720 2.52847 36,000 282 409 0
2017-10-19 13:47:29 GMT 51.38321 2.55818 36,000 280 388 0
2017-10-19 13:47:20 GMT 51.38038 2.58370 36,000 278 408 0
2017-10-19 13:47:10 GMT 51.37736 2.60983 36,000 278 441 0
2017-10-19 13:47:00 GMT 51.37323 2.64425 36,000 277 371 0
2017-10-19 13:46:50 GMT 51.37099 2.66903 36,000 281 412 0
2017-10-19 13:46:39 GMT 51.36669 2.70321 36,000 283 399 0
2017-10-19 13:46:29 GMT 51.36237 2.73197 36,000 286 409 0
2017-10-19 13:46:20 GMT 51.35750 2.75811 36,000 276 404 0
2017-10-19 13:46:10 GMT 51.35549 2.78793 36,000 282 381 0
2017-10-19 13:45:59 GMT 51.35129 2.81825 36,000 283 442 0
2017-10-19 13:45:49 GMT 51.34635 2.85004 36,000 282 416 0
2017-10-19 13:45:39 GMT 51.34412 2.87916 36,000 286 439 0
2017-10-19 13:45:31 GMT 51.33855 2.90412 36,000 285 399 0
2017-10-19 13:45:20 GMT 51.33394 2.93411 36,000 282 460 0
2017-10-19 13:45:09 GMT 51.32999 2.96956 36,000 283 418 -60
2017-10-19 13:45:01 GMT 51.32620 2.99441 36,000 279 394 -60
2017-10-19 13:44:51 GMT 51.32304 3.02316 36,000 282 419 0
2017-10-19 13:44:39 GMT 51.31839 3.06007 36,025 282 385 120
2017-10-19 13:44:29 GMT 51.31455 3.08796 36,025 284 446 60
2017-10-19 13:44:20 GMT 51.31017 3.11731 35,975 281 428 -120
2017-10-19 13:44:10 GMT 51.30527 3.14827 36,000 280 464 -60
2017-10-19 13:43:59 GMT 51.30212 3.17968 36,000 283 450 0
2017-10-19 13:43:51 GMT 51.29870 3.20567 36,025 284 445 60
2017-10-19 13:43:40 GMT 51.29313 3.24085 36,000 283 415 0
2017-10-19 13:43:31 GMT 51.28896 3.26772 36,000 277 411 0
2017-10-19 13:43:19 GMT 51.28581 3.30256 36,000 281 430 0
2017-10-19 13:43:08 GMT 51.28165 3.33648 36,000 282 458 0
2017-10-19 13:43:00 GMT 51.27732 3.36223 36,000 279 392 0
2017-10-19 13:42:50 GMT 51.27446 3.39092 36,000 286 433 0
2017-10-19 13:42:39 GMT 51.26772 3.42560 36,000 276 429 0
2017-10-19 13:42:29 GMT 51.26432 3.45578 36,000 284 406 0
2017-10-19 13:42:19 GMT 51.25912 3.48565 36,000 277 403 0
2017-10-19 13:42:11 GMT 51.25771 3.51048 36,000 276 410 0
2017-10-19 13:42:00 GMT 51.25541 3.54369 36,000 282 426 0
2017-10-19 13:41:39 GMT 51.24801 3.60902 36,000 287 397 0
2017-10-19 13:41:27 GMT 51.24120 3.64254 36,000 283 414 0
2017-10-19 13:41:18 GMT 51.23760 3.66900 36,000 286 418 0
2017-10-19 13:41:05 GMT 51.23180 3.70963 36,000 288 424 0
2017-10-19 13:40:58 GMT 51.22525 3.72963 36,000 284 409 0
2017-10-19 13:40:50 GMT 51.22237 3.75426 36,000 285 399 0
2017-10-19 13:40:28 GMT 51.21032 3.81755 36,000 283 429 0
2017-10-19 13:40:15 GMT 51.20433 3.85736 36,000 282 408 0
2017-10-19 13:39:45 GMT 51.18821 3.94340 36,000 282 401 0
2017-10-19 13:39:39 GMT 51.18678 3.96196 36,000 286 402 0
2017-10-19 13:39:19 GMT 51.17815 4.01878 36,000 288 406 0
2017-10-19 13:37:25 GMT 51.11360 4.34262 36,000 287 420 0
2017-10-19 13:36:29 GMT 51.08088 4.50298 36,000 288 402 0
2017-10-19 13:35:27 GMT 51.04356 4.69051 36,000 287 391 0
2017-10-19 13:34:49 GMT 51.02119 4.79447 35,975 287 426 0
2017-10-19 13:34:39 GMT 51.01688 4.82487 35,975 286 386 -60
2017-10-19 13:34:18 GMT 51.00558 4.88356 36,000 285 400 0
2017-10-19 13:34:07 GMT 51.00022 4.91394 36,000 290 441 0
2017-10-19 13:33:58 GMT 50.99368 4.94126 36,000 286 385 0
2017-10-19 13:33:46 GMT 50.98766 4.97505 36,000 287 410 0
2017-10-19 13:33:39 GMT 50.98425 4.99554 36,000 288 402 0
2017-10-19 13:33:29 GMT 50.97835 5.02363 36,000 286 394 0
2017-10-19 13:33:19 GMT 50.97272 5.04923 36,000 287 403 0
2017-10-19 13:33:06 GMT 50.96526 5.08590 36,000 288 382 0
2017-10-19 13:33:00 GMT 50.96150 5.10381 36,000 290 391 0
2017-10-19 13:32:50 GMT 50.95611 5.13021 36,000 288 425 0
2017-10-19 13:32:38 GMT 50.94824 5.16313 36,000 287 408 0
2017-10-19 13:32:28 GMT 50.94227 5.19213 36,000 286 386 0
2017-10-19 13:32:20 GMT 50.93829 5.21396 36,000 289 421 0
2017-10-19 13:32:09 GMT 50.93132 5.24611 36,000 285 382 0
2017-10-19 13:31:59 GMT 50.92646 5.27314 36,000 288 399 0
2017-10-19 13:31:50 GMT 50.92074 5.29886 36,000 287 373 0
2017-10-19 13:31:39 GMT 50.91511 5.32767 36,000 287 440 0
2017-10-19 13:31:28 GMT 50.90867 5.36120 36,000 286 414 0
2017-10-19 13:31:21 GMT 50.90246 5.38155 36,000 282 402 0
2017-10-19 13:31:08 GMT 50.89753 5.41851 36,000 286 404 0
2017-10-19 13:30:50 GMT 50.88741 5.47111 36,000 287 403 0
2017-10-19 13:30:35 GMT 50.87878 5.51332 36,000 283 389 0
2017-10-19 13:30:29 GMT 50.87617 5.52968 36,000 286 415 0
2017-10-19 13:30:18 GMT 50.87030 5.56231 36,000 289 396 0
2017-10-19 13:30:08 GMT 50.86479 5.59040 36,000 288 384 0
2017-10-19 13:30:01 GMT 50.85969 5.61053 36,000 286 385 0
2017-10-19 13:29:40 GMT 50.84937 5.66748 36,000 287 407 0
2017-10-19 13:29:26 GMT 50.84150 5.70567 36,000 287 409 0
2017-10-19 13:29:07 GMT 50.83082 5.76142 36,000 287 400 0
2017-10-19 13:28:50 GMT 50.82132 5.80880 35,975 287 412 0
2017-10-19 13:28:28 GMT 50.80880 5.87130 36,000 287 414 0
2017-10-19 13:28:18 GMT 50.80364 5.89847 36,000 287 416 0
2017-10-19 13:27:59 GMT 50.79245 5.95580 36,000 287 407 0
2017-10-19 13:27:25 GMT 50.77295 6.05326 36,000 287 411 0
2017-10-19 13:27:07 GMT 50.76270 6.10581 36,000 287 423 0
2017-10-19 13:26:58 GMT 50.75801 6.12936 36,000 287 461 0
2017-10-19 13:26:49 GMT 50.75211 6.15824 36,000 286 409 0
2017-10-19 13:26:36 GMT 50.74501 6.19497 36,000 286 407 0
2017-10-19 13:26:30 GMT 50.74191 6.21274 36,000 287 407 0
2017-10-19 13:26:18 GMT 50.73511 6.24685 36,000 288 419 0
2017-10-19 13:26:09 GMT 50.72923 6.27396 36,000 287 402 0
2017-10-19 13:25:58 GMT 50.72337 6.30359 36,000 288 397 0
2017-10-19 13:25:50 GMT 50.71799 6.32673 36,000 286 419 0
2017-10-19 13:25:39 GMT 50.71181 6.35896 36,000 287 402 0
2017-10-19 13:25:31 GMT 50.70718 6.38190 36,000 288 400 0
2017-10-19 13:25:20 GMT 50.70036 6.41181 36,000 285 416 0
2017-10-19 13:25:07 GMT 50.69341 6.45043 36,000 288 394 0
2017-10-19 13:25:01 GMT 50.69010 6.46649 36,000 291 424 0
2017-10-19 13:24:50 GMT 50.68234 6.49828 36,000 285 371 0
2017-10-19 13:24:39 GMT 50.67717 6.52699 36,000 286 397 0
2017-10-19 13:24:30 GMT 50.67075 6.55443 36,000 286 358 0
2017-10-19 13:24:21 GMT 50.66643 6.57700 36,000 289 433 0
2017-10-19 13:24:09 GMT 50.65870 6.61283 36,000 289 386 0
2017-10-19 13:24:01 GMT 50.65350 6.63608 36,000 288 407 0
2017-10-19 13:23:52 GMT 50.64803 6.66140 36,000 288 400 0
2017-10-19 13:23:40 GMT 50.64084 6.69457 36,000 289 406 0
2017-10-19 13:23:30 GMT 50.63462 6.72213 36,000 289 405 0
2017-10-19 13:23:19 GMT 50.62738 6.75462 36,000 290 410 0
2017-10-19 13:23:09 GMT 50.62103 6.78249 36,000 290 421 0
2017-10-19 13:23:01 GMT 50.61592 6.80404 36,000 290 435 0
2017-10-19 13:22:49 GMT 50.60743 6.83889 36,000 288 415 0
2017-10-19 13:22:39 GMT 50.60160 6.86568 36,000 288 436 0
2017-10-19 13:22:28 GMT 50.59456 6.89891 36,000 286 405 0
2017-10-19 13:22:22 GMT 50.59037 6.91644 36,000 287 402 0
2017-10-19 13:22:09 GMT 50.58256 6.95221 36,000 288 438 0
2017-10-19 13:22:01 GMT 50.57740 6.97620 36,000 289 406 0
2017-10-19 13:21:51 GMT 50.57148 7.00306 36,000 289 415 0
2017-10-19 13:21:37 GMT 50.56270 7.04309 36,000 288 442 0
2017-10-19 13:21:30 GMT 50.55811 7.06397 36,000 289 412 0
2017-10-19 13:21:20 GMT 50.55186 7.09235 36,000 289 404 0
2017-10-19 13:21:10 GMT 50.54452 7.12278 36,000 289 392 0
2017-10-19 13:21:00 GMT 50.53850 7.15019 36,000 289 440 0
2017-10-19 13:20:51 GMT 50.53237 7.17741 36,000 289 382 0
2017-10-19 13:20:38 GMT 50.52410 7.21350 36,000 289 431 0
2017-10-19 13:20:30 GMT 50.51902 7.23618 36,000 289 436 0
2017-10-19 13:20:21 GMT 50.51309 7.26323 36,000 288 426 0
2017-10-19 13:20:08 GMT 50.50508 7.30150 36,000 289 387 0
2017-10-19 13:20:01 GMT 50.50046 7.32179 36,000 289 412 0
2017-10-19 13:19:49 GMT 50.49309 7.35508 36,000 291 404 0
2017-10-19 13:19:40 GMT 50.48694 7.38123 36,000 289 401 0
2017-10-19 13:19:31 GMT 50.48140 7.40702 36,000 290 423 0
2017-10-19 13:19:21 GMT 50.47456 7.43584 36,000 288 430 0
2017-10-19 13:19:09 GMT 50.46725 7.46979 36,000 289 442 0
2017-10-19 13:19:00 GMT 50.46120 7.49715 36,000 288 398 0
2017-10-19 13:18:49 GMT 50.45440 7.52851 36,000 288 409 0
2017-10-19 13:18:39 GMT 50.44825 7.55663 36,000 288 406 0
2017-10-19 13:18:31 GMT 50.44329 7.58015 36,000 288 398 0
2017-10-19 13:18:21 GMT 50.43734 7.60755 36,000 289 389 0
2017-10-19 13:18:10 GMT 50.43017 7.63990 36,000 291 409 0
2017-10-19 13:18:01 GMT 50.42476 7.66448 36,000 291 420 0
2017-10-19 13:17:51 GMT 50.41836 7.69142 36,000 289 439 0
2017-10-19 13:17:39 GMT 50.41060 7.72580 36,000 290 416 0
2017-10-19 13:17:30 GMT 50.40393 7.75273 36,000 289 399 0
2017-10-19 13:17:18 GMT 50.39659 7.78556 36,000 289 394 0
2017-10-19 13:17:10 GMT 50.39160 7.80851 36,000 289 399 0
2017-10-19 13:17:01 GMT 50.38572 7.83383 36,000 289 394 0
2017-10-19 13:16:52 GMT 50.38017 7.85747 36,000 288 395 0
2017-10-19 13:16:40 GMT 50.37266 7.89165 36,000 289 385 0
2017-10-19 13:16:31 GMT 50.36664 7.91641 36,000 289 378 0
2017-10-19 13:16:21 GMT 50.36080 7.94230 36,000 289 408 0
2017-10-19 13:16:10 GMT 50.35281 7.97506 36,000 288 386 0
2017-10-19 13:16:00 GMT 50.34740 8.00011 36,000 290 411 0
2017-10-19 13:15:51 GMT 50.34134 8.02520 36,000 291 403 0
2017-10-19 13:15:39 GMT 50.33321 8.05786 36,000 290 396 0
2017-10-19 13:15:31 GMT 50.32755 8.08023 36,000 291 396 0
2017-10-19 13:15:19 GMT 50.31962 8.11242 36,000 292 399 0
2017-10-19 13:15:09 GMT 50.31242 8.13909 36,000 288 402 0
2017-10-19 13:15:00 GMT 50.30723 8.16408 36,000 290 382 0
2017-10-19 13:14:51 GMT 50.30157 8.18740 36,000 290 412 0
2017-10-19 13:14:40 GMT 50.29413 8.21814 36,000 292 415 0
2017-10-19 13:14:30 GMT 50.28760 8.24555 36,000 291 389 0
2017-10-19 13:14:20 GMT 50.28095 8.27177 36,000 290 423 0
2017-10-19 13:14:10 GMT 50.27402 8.30044 36,000 289 406 0
2017-10-19 13:13:59 GMT 50.26698 8.33091 36,000 290 408 0
2017-10-19 13:13:52 GMT 50.26207 8.35135 36,000 290 406 0
2017-10-19 13:13:40 GMT 50.25427 8.38447 36,000 289 398 0
2017-10-19 13:13:31 GMT 50.24818 8.40938 36,000 288 390 0
2017-10-19 13:13:18 GMT 50.23999 8.44529 36,000 289 401 0
2017-10-19 13:13:09 GMT 50.23397 8.47062 36,000 289 384 0
2017-10-19 13:13:00 GMT 50.22857 8.49415 36,000 292 417 0
2017-10-19 13:12:49 GMT 50.22116 8.52562 36,000 291 400 0
2017-10-19 13:12:40 GMT 50.21487 8.55040 36,000 292 384 0
2017-10-19 13:12:30 GMT 50.20817 8.57615 36,000 295 423 0
2017-10-19 13:12:20 GMT 50.19985 8.60389 36,000 291 400 0
2017-10-19 13:12:10 GMT 50.19316 8.63089 36,000 292 380 0
2017-10-19 13:11:57 GMT 50.18406 8.66616 36,000 283 409 0
2017-10-19 13:11:49 GMT 50.18105 8.68934 36,000 289 433 0
2017-10-19 13:11:40 GMT 50.17489 8.71586 36,000 288 401 0
2017-10-19 13:11:30 GMT 50.16846 8.74289 36,000 291 414 0
2017-10-19 13:11:20 GMT 50.16170 8.77100 36,000 290 421 60
2017-10-19 13:11:10 GMT 50.15475 8.79940 36,000 289 407 0
2017-10-19 13:11:01 GMT 50.14878 8.82774 35,975 290 391 -60
2017-10-19 13:10:52 GMT 50.14313 8.85161 36,000 288 401 0
2017-10-19 13:10:38 GMT 50.13453 8.89096 36,000 288 464 0
2017-10-19 13:10:30 GMT 50.12900 8.91590 36,000 287 455 0
2017-10-19 13:10:20 GMT 50.12250 8.94716 36,000 290 389 0
2017-10-19 13:10:09 GMT 50.11520 8.97804 36,000 289 394 0
2017-10-19 13:09:58 GMT 50.10741 9.00590 36,000 286 410 0
2017-10-19 13:09:48 GMT 50.10243 9.03434 36,000 288 442 0
2017-10-19 13:09:39 GMT 50.09674 9.06237 36,000 289 393 0
2017-10-19 13:09:31 GMT 50.09184 9.08471 36,000 290 401 0
2017-10-19 13:09:21 GMT 50.08592 9.11129 36,000 290 399 0
2017-10-19 13:09:07 GMT 50.07708 9.15014 36,000 289 400 0
2017-10-19 13:08:59 GMT 50.07183 9.17078 36,000 286 397 0
2017-10-19 13:08:52 GMT 50.06853 9.19007 36,025 289 389 60
2017-10-19 13:08:50 GMT 50.06302 9.22028 36,000 291 375 256
2017-10-19 13:08:44 GMT 50.06018 9.23379 36,075 292 371 320
2017-10-19 13:08:35 GMT 50.05059 9.27253 36,025 292 364 576
2017-10-19 13:08:22 GMT 50.04719 9.28768 36,000 292 361 832
2017-10-19 13:08:13 GMT 50.03779 9.32368 35,875 292 361 960
2017-10-19 13:08:03 GMT 50.03532 9.33341 35,825 292 360 1024
2017-10-19 13:07:46 GMT 50.02359 9.38151 35,725 293 361 1216
2017-10-19 13:07:42 GMT 50.01852 9.40110 35,575 293 359 1408
2017-10-19 13:07:25 GMT 50.01000 9.43139 35,425 293 361 1472
2017-10-19 13:07:18 GMT 50.00460 9.45017 35,275 292 362 1536
2017-10-19 13:07:12 GMT 49.99799 9.47667 34,675 292 363 1536
2017-10-19 13:07:01 GMT 49.99538 9.48662 34,800 292 362 1472
2017-10-19 13:06:46 GMT 49.98449 9.52737 34,525 292 362 1472
2017-10-19 13:06:34 GMT 49.97820 9.55150 34,275 292 362 1408
2017-10-19 13:06:24 GMT 49.97178 9.57533 34,025 292 362 1408
2017-10-19 13:06:18 GMT 49.96922 9.58520 33,750 292 361 1408
2017-10-19 13:06:04 GMT 49.95591 9.63360 33,500 291 356 1344
2017-10-19 13:05:52 GMT 49.95218 9.64748 33,250 290 358 1344
2017-10-19 13:05:40 GMT 49.94441 9.68170 32,950 290 355 1408
2017-10-19 13:05:34 GMT 49.93961 9.70063 32,750 290 357 1344
2017-10-19 13:05:26 GMT 49.93500 9.72513 32,475 290 347 1408
2017-10-19 13:05:16 GMT 49.93160 9.73923 32,100 290 347 1344
2017-10-19 13:05:07 GMT 49.92620 9.76269 31,875 291 347 1344
2017-10-19 13:05:01 GMT 49.92229 9.77902 31,975 291 347 1344
2017-10-19 13:04:54 GMT 49.91522 9.80960 31,425 291 346 1344
2017-10-19 13:04:41 GMT 49.91289 9.82118 31,325 291 347 1408
2017-10-19 13:04:32 GMT 49.90679 9.84412 31,100 291 349 1472
2017-10-19 13:04:20 GMT 49.89739 9.88369 31,100 291 350 1472
2017-10-19 13:04:10 GMT 49.89348 9.90039 30,825 291 349 1408
2017-10-19 13:04:10 GMT 49.89348 9.90039 30,850 291 349 1408
2017-10-19 13:04:01 GMT 49.88882 9.92392 30,600 292 350 1344
2017-10-19 13:03:53 GMT 49.88738 9.93082 30,200 292 351 1408
2017-10-19 13:03:49 GMT 49.88221 9.95220 30,300 293 350 1792
2017-10-19 13:03:33 GMT 49.87579 9.98138 30,075 294 358 1600
2017-10-19 13:03:29 GMT 49.87248 9.99288 29,825 294 359 1664
2017-10-19 13:03:21 GMT 49.87029 10.00513 29,550 295 360 1792
2017-10-19 13:03:13 GMT 49.86410 10.03007 29,525 296 356 1984
2017-10-19 13:03:09 GMT 49.85791 10.05242 29,250 297 351 1984
2017-10-19 13:02:59 GMT 49.85610 10.05977 29,000 298 349 1856
2017-10-19 13:02:53 GMT 49.85019 10.08107 28,950 299 356 1792
2017-10-19 13:02:49 GMT 49.84679 10.09309 28,750 299 354 1792
2017-10-19 13:02:40 GMT 49.84181 10.11039 28,675 300 349 1792
2017-10-19 13:02:31 GMT 49.83729 10.12390 28,350 301 349 1856
2017-10-19 13:02:26 GMT 49.83170 10.13919 28,050 301 348 1856
2017-10-19 13:02:15 GMT 49.82090 10.16710 27,725 301 347 1920
2017-10-19 13:02:09 GMT 49.81862 10.17379 27,500 301 346 1920
2017-10-19 13:02:04 GMT 49.81322 10.18782 27,400 301 350 1984
2017-10-19 13:01:51 GMT 49.80400 10.21149 27,075 301 359 2176
2017-10-19 13:01:41 GMT 49.79502 10.23510 26,675 301 363 2240
2017-10-19 13:01:32 GMT 49.79041 10.24779 26,350 301 366 2304
2017-10-19 13:01:21 GMT 49.78199 10.27029 25,725 301 366 2304
2017-10-19 13:01:07 GMT 49.76499 10.31193 25,625 300 374 1984
2017-10-19 13:00:57 GMT 49.75480 10.33917 25,250 299 379 1792
2017-10-19 13:00:50 GMT 49.75070 10.34778 24,900 299 368 1664
2017-10-19 13:00:35 GMT 49.73422 10.39604 24,525 299 358 960
2017-10-19 13:00:25 GMT 49.72389 10.42602 24,125 299 354 1024
2017-10-19 13:00:14 GMT 49.72161 10.43300 23,775 299 353 1024
2017-10-19 13:00:09 GMT 49.71821 10.44191 23,575 299 352 1088
2017-10-19 12:59:58 GMT 49.70792 10.47190 23,425 299 347 1152
2017-10-19 12:59:41 GMT 49.69512 10.50827 23,250 299 340 1280
2017-10-19 12:59:35 GMT 49.69219 10.51674 23,000 299 339 1344
2017-10-19 12:59:28 GMT 49.68572 10.53388 22,750 299 338 1344
2017-10-19 12:59:03 GMT 49.66528 10.58889 22,475 298 327 1472
2017-10-19 12:58:51 GMT 49.65578 10.61680 22,200 298 322 1344
2017-10-19 12:58:44 GMT 49.65108 10.63150 21,700 299 322 1280
2017-10-19 12:58:28 GMT 49.64131 10.65978 21,675 299 320 1216
2017-10-19 12:58:23 GMT 49.63609 10.67307 21,300 298 315 1344
2017-10-19 12:58:10 GMT 49.62659 10.70157 21,275 298 313 1472
2017-10-19 12:58:03 GMT 49.61831 10.72600 21,050 299 310 1600
2017-10-19 12:57:48 GMT 49.61351 10.74062 20,800 299 307 1856
2017-10-19 12:57:42 GMT 49.60751 10.75844 20,600 300 305 1920
2017-10-19 12:57:30 GMT 49.59610 10.79362 20,350 304 303 1984
2017-10-19 12:57:19 GMT 49.59312 10.80208 20,000 304 306 2048
2017-10-19 12:57:11 GMT 49.58772 10.82057 19,425 308 304 2048
2017-10-19 12:56:59 GMT 49.57711 10.84499 19,350 310 301 2112
2017-10-19 12:56:48 GMT 49.56822 10.86459 19,025 312 300 2240
2017-10-19 12:56:32 GMT 49.55458 10.88760 18,675 312 296 2368
2017-10-19 12:56:27 GMT 49.54918 10.89614 18,375 312 299 2304
2017-10-19 12:56:14 GMT 49.53889 10.91410 17,975 312 296 2112
2017-10-19 12:56:03 GMT 49.52809 10.93310 17,550 312 296 2112
2017-10-19 12:55:55 GMT 49.52181 10.94431 17,150 312 296 2176
2017-10-19 12:55:46 GMT 49.51012 10.96502 16,750 312 296 2432
2017-10-19 12:55:31 GMT 49.49830 10.98470 16,300 312 297 2304
2017-10-19 12:55:23 GMT 49.49290 10.99360 15,900 312 300 2304
2017-10-19 12:55:11 GMT 49.48149 11.01699 15,475 315 304 2240
2017-10-19 12:54:58 GMT 49.47041 11.03562 15,100 316 308 2240
2017-10-19 12:54:54 GMT 49.46361 11.04668 14,275 316 309 2176
2017-10-19 12:54:39 GMT 49.44779 11.07140 14,350 318 312 1792
2017-10-19 12:54:31 GMT 49.44602 11.07466 13,975 319 313 1664
2017-10-19 12:54:16 GMT 49.41990 11.09540 13,600 307 262 1408
2017-10-19 12:54:07 GMT 49.40938 11.10964 13,225 300 233 1600
2017-10-19 12:53:51 GMT 49.39518 11.13363 12,750 286 213 1536

Making use of Plane Finder data

You are free to use the raw flight data, aircraft information and images provided in this report for your own purposes provided the data is correctly attributed to Plane Finder. We ask that you please credit Plane Finder and link to planefinder.net in close proximity to the content.

Optionally one of the following logos (no smaller then 150x24px) can be used and must link to planefinder.net

Embedding the Plane Finder map

You are welcome to embed the Plane Finder playback map on your website to offer visitors a more interactive experience. We suggest using the following HTML code:

<iframe src="//planefinder.net/data/report/BM1424-G-EMBJ-7700-squawk-2017-10-19/map" width="800" height="600" seamless="seamless"></iframe>

Where our data comes from

Plane Finder has a global network of data feeds and antenna radars that receive data broadcast directly from aircraft. The primary technologies used are ADS-B and MLAT. We also show feeds from the FAA and a FLARM glider feed.

Click here to find out more about the Plane Finder network.

How we collect our data